Flight Track Log - Related Links

Times and Time Zones

All times are in EDT time to prevent confusion due to time zone crossing. See the VRD251 flight status page for this flight to view local times or setup timezone preferences in your user account.

Time Position Orientation Groundspeed Altitude Reporting Facility
EDT Latitude Longitude Course Direction KTS MPH feet Rate Location/Type
Thu 04:35:36 PM 36.0706 -115.1758 201° Southwest 155 178 3,500  Level Los Angeles Center
Thu 04:36:13 PM 36.0436 -115.1889 227° Southwest 186 214 4,400 1,962 Climbing Los Angeles Center
Thu 04:37:20 PM 35.9919 -115.2564 235° Southwest 256 295 6,900 1,500 Climbing Los Angeles Center
Thu 04:38:21 PM 35.9508 -115.3286 223° Southwest 259 298 7,600 1,468 Climbing Los Angeles Center
Thu 04:38:54 PM 35.9239 -115.3597 234° Southwest 280 322 9,200 2,194 Climbing Los Angeles Center
Thu 04:39:54 PM 35.8825 -115.4292 273° West 296 341 11,000 950 Climbing Los Angeles Center
Thu 04:40:54 PM 35.8872 -115.5342 272° West 282 325 11,100 950 Climbing Los Angeles Center
Thu 04:41:54 PM 35.8897 -115.6419 272° West 312 359 12,900 2,600 Climbing Los Angeles Center
Thu 04:42:54 PM 35.8922 -115.7597 270° West 317 365 16,300 2,950 Climbing Los Angeles Center
Thu 04:43:54 PM 35.8925 -115.8597 279° West 322 371 18,800 2,400 Climbing Los Angeles Center
Thu 04:44:54 PM 35.9094 -115.9853 316° Northwest 334 384 21,100 2,250 Climbing Los Angeles Center
Thu 04:45:54 PM 35.9719 -116.0597 316° Northwest 330 380 23,300 2,100 Climbing Los Angeles Center
Thu 04:46:54 PM 36.0472 -116.1494 318° Northwest 342 394 25,300 1,800 Climbing Los Angeles Center
Thu 04:47:54 PM 36.1222 -116.2319 317° Northwest 353 406 26,900 1,500 Climbing Los Angeles Center
Thu 04:48:54 PM 36.1992 -116.3219 317° Northwest 364 419 28,300 1,450 Climbing Los Angeles Center
Thu 04:49:54 PM 36.2783 -116.4125 317° Northwest 376 433 29,800 1,500 Climbing Los Angeles Center
Thu 04:50:54 PM 36.3575 -116.5056 316° Northwest 376 433 31,300 1,250 Climbing Los Angeles Center
Thu 04:51:54 PM 36.4342 -116.5961 317° Northwest 382 440 32,300 1,300 Climbing Los Angeles Center
Thu 04:52:54 PM 36.5153 -116.6897 319° Northwest 387 445 33,900 1,450 Climbing Los Angeles Center
Thu 04:53:54 PM 36.6003 -116.7808 329° Northwest 392 451 35,200 1,050 Climbing Los Angeles Center
Thu 04:54:54 PM 36.6936 -116.8517 328° Northwest 392 451 36,000 776 Climbing Los Angeles Center
Thu 04:56:44 PM 36.8669 -116.9861 321° Northwest 382 440 37,400 600 Climbing Oakland Center
Thu 04:57:44 PM 36.9511 -117.0725 285° West 387 445 37,700 300 Climbing Oakland Center
Thu 04:58:44 PM 36.9783 -117.2039 284° West 374 430 38,000 149 Climbing Oakland Center
Thu 04:59:45 PM 37.0033 -117.3325 283° West 374 430 38,000  Level Oakland Center
Thu 05:00:44 PM 37.0281 -117.4642 283° West 380 437 38,000  Level Oakland Center
Thu 05:01:44 PM 37.0528 -117.5956 283° West 390 449 38,000  Level Oakland Center
Thu 05:02:44 PM 37.0775 -117.7272 283° West 398 458 38,000  Level Oakland Center
Thu 05:03:45 PM 37.1022 -117.8669 284° West 398 458 38,000  Level Oakland Center
Thu 05:04:44 PM 37.1308 -118.0089 282° West 410 472 38,000  Level Oakland Center
Thu 05:05:44 PM 37.1528 -118.1383 283° West 410 472 38,000  Level Oakland Center
Thu 05:06:44 PM 37.1769 -118.2731 284° West 405 466 38,000  Level Oakland Center
Thu 05:07:46 PM 37.2028 -118.4078 282° West 405 466 38,000 -45 Level Oakland Center
Thu 05:08:56 PM 37.2267 -118.5531 284° West 405 466 37,900  Descending Oakland Center
Thu 05:09:56 PM 37.2525 -118.6878 283° West 394 453 38,000 -700 Climbing Oakland Center
Thu 05:10:56 PM 37.2758 -118.8203 280° West 394 453 36,500 -1,820 Descending Oakland Center
Thu 05:11:58 PM 37.2925 -118.9397 284° West 378 435 34,300 -1,300 Descending Oakland Center
Thu 05:12:56 PM 37.3178 -119.0697 281° West 372 428 33,900 -153 Descending Oakland Center
Thu 05:13:56 PM 37.3364 -119.1894 283° West 366 421 34,000 50 Climbing Oakland Center
Thu 05:14:56 PM 37.3589 -119.3092 281° West 361 415 34,000  Level Oakland Center
Thu 05:15:57 PM 37.3772 -119.4289 280° West 355 409 34,000  Level Oakland Center
Thu 05:16:57 PM 37.3956 -119.5567 282° West 346 398 34,000  Level Oakland Center
Thu 05:17:56 PM 37.4156 -119.6764 285° West 351 404 34,000 -300 Level Oakland Center
Thu 05:18:57 PM 37.4397 -119.7886 282° West 351 404 33,400 -850 Descending Oakland Center
Thu 05:19:56 PM 37.4597 -119.9061 281° West 346 398 32,300 -1,059 Descending Oakland Center
Thu 05:20:56 PM 37.4775 -120.0261 282° West 346 398 31,300 -950 Descending Oakland Center
Thu 05:21:56 PM 37.4972 -120.1436 282° West 351 404 30,400 -1,000 Descending Oakland Center
Thu 05:22:56 PM 37.5167 -120.2614 282° West 351 404 29,300 -1,000 Descending Oakland Center
Thu 05:23:56 PM 37.5339 -120.3658 281° West 340 391 28,400 -950 Descending Oakland Center
Thu 05:24:56 PM 37.5489 -120.4681 283° West 313 360 27,400 -1,000 Descending Oakland Center
Thu 05:25:56 PM 37.5661 -120.5647 280° West 303 349 26,400 -900 Descending Oakland Center
Thu 05:26:56 PM 37.5767 -120.6433 280° West 292 336 25,600 -1,150 Descending Oakland Center
Thu 05:27:56 PM 37.5917 -120.7481 282° West 292 336 24,100 -1,550 Descending Oakland Center
Thu 05:28:56 PM 37.6083 -120.8450 281° West 282 325 22,500 -1,550 Descending Oakland Center
Thu 05:29:56 PM 37.6231 -120.9447 264° West 282 325 21,000 -1,500 Descending Oakland Center
Thu 05:30:56 PM 37.6147 -121.0392 262° West 277 319 19,500 -1,500 Descending Oakland Center
Thu 05:31:56 PM 37.6042 -121.1333 264° West 277 319 18,000 -1,600 Descending Oakland Center
Thu 05:32:56 PM 37.5958 -121.2303 264° West 277 319 16,300 -1,583 Descending Oakland Center
Thu 05:34:20 PM 37.5833 -121.3833 256° West 275 316 14,200 -1,458 Descending Northern Cal TRACON
Thu 05:35:20 PM 37.5667 -121.4667 256° West 263 303 12,800 -1,190 Descending Northern Cal TRACON
Thu 05:36:21 PM 37.5500 -121.5500 256° West 269 310 11,800 -939 Descending Northern Cal TRACON
Thu 05:37:15 PM 37.5333 -121.6333 256° West 257 296 11,000 -939 Descending Northern Cal TRACON
Thu 05:38:16 PM 37.5167 -121.7167 258° West 252 290 10,000 -803 Descending Northern Cal TRACON
Thu 05:39:22 PM 37.5000 -121.8167 253° West 236 272 9,300 -905 Descending Northern Cal TRACON
Thu 05:40:22 PM 37.4833 -121.8833 284° West 232 267 8,100 -1,200 Descending Northern Cal TRACON
Thu 05:41:17 PM 37.5000 -121.9667 288° West 239 275 7,000 -1,397 Descending Northern Cal TRACON
Thu 05:42:18 PM 37.5167 -122.0333 297° West 224 258 5,400 -1,748 Descending Northern Cal TRACON
Thu 05:43:24 PM 37.5500 -122.1167 288° West 207 238 3,300 -1,476 Descending Northern Cal TRACON
Thu 05:44:24 PM 37.5667 -122.1833 293° West 176 203 2,300 -730 Descending Northern Cal TRACON
Thu 05:45:19 PM 37.5833 -122.2333 270° West 170 196 1,900 -522 Descending Northern Cal TRACON
Thu 05:46:19 PM 37.5833 -122.2833 302° West 138 159 1,300 -545 Descending Northern Cal TRACON
Thu 05:47:20 PM 37.6000 -122.3167 302° West 120 138 800 -492 Descending Northern Cal TRACON

Login

Don't have an account? Register now (free) for customized features, flight alerts, and more!